Time;durP1;ratioP1;P1;durP2;ratioP2;P2;SDS_P1;SDS_P2;PMS_P1;PMS_P2;Temp;Humidity;BMP_temperature;BMP_pressure;BME280_temperature;BME280_humidity;BME280_pressure;Samples;Min_cycle;Max_cycle;Signal;HPM_P1;HPM_P2
2023/09/09 00:03:08;;;;;;;;;;;20.50;99.90;;;;;;15696022;22;19922;-35
2023/09/09 00:09:10;;;;;;;;;;;20.40;99.90;;;;;;15692207;22;19922;-35
2023/09/09 00:15:12;;;;;;;;;;;20.30;99.90;;;;;;15689947;22;19929;-35
2023/09/09 00:21:14;;;;;;;;;;;20.20;99.90;;;;;;15682227;22;20005;-35
2023/09/09 00:27:16;;;;;;;;;;;20.10;99.90;;;;;;15682074;22;19930;-35
2023/09/09 00:33:17;;;;;;;;;;;20.00;99.90;;;;;;15664858;22;19965;-35
2023/09/09 00:39:19;;;;;;;;;;;20.00;99.90;;;;;;15672365;22;19969;-35
2023/09/09 00:45:21;;;;;;;;;;;19.90;99.90;;;;;;15693104;22;20124;-35
2023/09/09 00:51:23;;;;;;;;;;;19.70;99.90;;;;;;15680205;22;19952;-35
2023/09/09 00:57:25;;;;;;;;;;;19.80;99.90;;;;;;15693718;22;19923;-35
2023/09/09 01:03:28;;;;;;;;;;;19.80;99.90;;;;;;15698145;22;19962;-35
2023/09/09 01:09:30;;;;;;;;;;;19.80;99.90;;;;;;15677227;22;19923;-35
2023/09/09 01:15:32;;;;;;;;;;;19.70;99.90;;;;;;15700867;22;20332;-35
2023/09/09 01:21:35;;;;;;;;;;;19.70;99.90;;;;;;15694143;22;20245;-35
2023/09/09 01:27:37;;;;;;;;;;;19.50;99.90;;;;;;15701534;22;19922;-35
2023/09/09 01:33:39;;;;;;;;;;;19.40;99.90;;;;;;15699424;22;19927;-35
2023/09/09 01:39:41;;;;;;;;;;;19.40;99.90;;;;;;15701030;22;19923;-35
2023/09/09 01:45:43;;;;;;;;;;;19.30;99.90;;;;;;15698872;22;19922;-35
2023/09/09 01:51:45;;;;;;;;;;;19.20;99.90;;;;;;15692471;22;20302;-36
2023/09/09 01:57:47;;;;;;;;;;;19.20;99.90;;;;;;15701050;22;19981;-35
2023/09/09 02:03:49;;;;;;;;;;;19.30;99.90;;;;;;15703299;22;20276;-35
2023/09/09 02:09:51;;;;;;;;;;;19.30;99.90;;;;;;15702365;22;20033;-36
2023/09/09 02:16:01;;;;;;;;;;;19.30;99.90;;;;;;15696926;22;20264;-35
2023/09/09 02:22:04;;;;;;;;;;;19.30;99.90;;;;;;15676760;22;20260;-35
2023/09/09 02:28:06;;;;;;;;;;;19.20;99.90;;;;;;15700606;22;19989;-35
2023/09/09 02:34:07;;;;;;;;;;;19.20;99.90;;;;;;15701983;22;20009;-35
2023/09/09 02:40:09;;;;;;;;;;;19.10;99.90;;;;;;15698531;22;19965;-35
2023/09/09 02:46:11;;;;;;;;;;;19.10;99.90;;;;;;15694041;22;19922;-35
2023/09/09 02:52:15;;;;;;;;;;;19.00;99.90;;;;;;15697189;22;20067;-34
2023/09/09 02:58:17;;;;;;;;;;;18.90;99.90;;;;;;15703082;22;19922;-35
2023/09/09 03:04:19;;;;;;;;;;;18.80;99.90;;;;;;15696171;22;19927;-34
2023/09/09 03:10:21;;;;;;;;;;;18.60;99.90;;;;;;15700424;22;19973;-34
2023/09/09 03:16:23;;;;;;;;;;;18.60;99.90;;;;;;15673983;22;20324;-34
2023/09/09 03:22:25;;;;;;;;;;;18.70;99.90;;;;;;15702701;22;20264;-35
2023/09/09 03:28:26;;;;;;;;;;;18.60;99.90;;;;;;15675258;22;19972;-34
2023/09/09 03:34:28;;;;;;;;;;;18.50;99.90;;;;;;15701733;22;20019;-34
2023/09/09 03:40:30;;;;;;;;;;;18.50;99.90;;;;;;15693388;22;20475;-34
2023/09/09 03:46:31;;;;;;;;;;;18.60;99.90;;;;;;15699124;22;19961;-34
2023/09/09 03:52:33;;;;;;;;;;;18.50;99.90;;;;;;15678594;22;20440;-35
2023/09/09 03:58:35;;;;;;;;;;;18.50;99.90;;;;;;15688449;22;20323;-35
2023/09/09 04:04:37;;;;;;;;;;;18.40;99.90;;;;;;15693497;22;19950;-35
2023/09/09 04:10:38;;;;;;;;;;;18.40;99.90;;;;;;15693998;22;19926;-34
2023/09/09 04:16:40;;;;;;;;;;;18.30;99.90;;;;;;15660219;22;19933;-34
2023/09/09 04:22:42;;;;;;;;;;;18.30;99.90;;;;;;15704435;22;20384;-35
2023/09/09 04:28:44;;;;;;;;;;;18.20;99.90;;;;;;15697375;22;20488;-35
2023/09/09 04:34:46;;;;;;;;;;;18.10;99.90;;;;;;15700184;22;20282;-35
2023/09/09 04:40:47;;;;;;;;;;;18.10;99.90;;;;;;15700263;22;20749;-35
2023/09/09 04:46:49;;;;;;;;;;;18.10;99.90;;;;;;15695845;22;19922;-35
2023/09/09 04:52:51;;;;;;;;;;;18.10;99.90;;;;;;15667610;22;19972;-35
2023/09/09 04:58:52;;;;;;;;;;;18.10;99.90;;;;;;15693442;22;20288;-35
2023/09/09 05:04:54;;;;;;;;;;;18.00;99.90;;;;;;15695460;22;19930;-35
2023/09/09 05:10:56;;;;;;;;;;;18.00;99.90;;;;;;15693797;22;19922;-35
2023/09/09 05:16:58;;;;;;;;;;;18.00;99.90;;;;;;15690670;22;20061;-35
2023/09/09 05:23:01;;;;;;;;;;;17.90;99.90;;;;;;15700427;22;20116;-35
2023/09/09 05:29:03;;;;;;;;;;;17.80;99.90;;;;;;15692488;22;20131;-35
2023/09/09 05:35:06;;;;;;;;;;;18.00;99.90;;;;;;15705162;22;19949;-35
2023/09/09 05:41:07;;;;;;;;;;;17.90;99.90;;;;;;15706606;22;20475;-35
2023/09/09 05:47:09;;;;;;;;;;;18.00;99.90;;;;;;15707249;22;19922;-35
2023/09/09 05:53:12;;;;;;;;;;;18.20;99.90;;;;;;15706102;22;19929;-35
2023/09/09 05:59:14;;;;;;;;;;;18.40;99.90;;;;;;15701195;22;20189;-35
2023/09/09 06:05:15;;;;;;;;;;;18.50;99.90;;;;;;15696695;22;20314;-35
2023/09/09 06:11:17;;;;;;;;;;;18.50;99.90;;;;;;15702382;22;20385;-35
2023/09/09 06:17:19;;;;;;;;;;;18.50;99.90;;;;;;15673382;22;19945;-35
2023/09/09 06:23:21;;;;;;;;;;;18.60;99.90;;;;;;15708624;22;19956;-35
2023/09/09 06:29:23;;;;;;;;;;;18.70;99.90;;;;;;15705256;22;19930;-35
2023/09/09 06:35:25;;;;;;;;;;;18.70;99.90;;;;;;15704199;22;19918;-35
2023/09/09 06:41:27;;;;;;;;;;;18.70;99.90;;;;;;15703330;22;20358;-35
2023/09/09 06:47:28;;;;;;;;;;;18.80;99.90;;;;;;15702236;22;20135;-35
2023/09/09 06:53:30;;;;;;;;;;;19.00;99.90;;;;;;15699882;22;19923;-35
2023/09/09 06:59:32;;;;;;;;;;;18.80;99.90;;;;;;15694500;22;19922;-35
2023/09/09 07:05:34;;;;;;;;;;;19.10;99.90;;;;;;15702561;22;19929;-38
2023/09/09 07:11:36;;;;;;;;;;;19.10;99.90;;;;;;15696734;22;19929;-35
2023/09/09 07:17:38;;;;;;;;;;;19.30;99.90;;;;;;15696003;22;19918;-35
2023/09/09 07:23:40;;;;;;;;;;;19.40;99.90;;;;;;15699625;22;19927;-37
2023/09/09 07:29:42;;;;;;;;;;;19.40;99.90;;;;;;15661911;22;20040;-35
2023/09/09 07:35:44;;;;;;;;;;;19.50;99.90;;;;;;15696916;22;19997;-35
2023/09/09 07:41:46;;;;;;;;;;;19.70;99.90;;;;;;15698850;22;19931;-35
2023/09/09 07:47:47;;;;;;;;;;;19.70;99.90;;;;;;15696375;22;20012;-36
2023/09/09 07:53:49;;;;;;;;;;;19.90;99.90;;;;;;15693927;22;19922;-35
2023/09/09 07:59:51;;;;;;;;;;;20.10;99.90;;;;;;15697609;22;19965;-35
2023/09/09 08:05:53;;;;;;;;;;;20.30;99.90;;;;;;15693789;22;19989;-35
2023/09/09 08:11:55;;;;;;;;;;;20.50;99.90;;;;;;15695276;22;20006;-35
2023/09/09 08:17:57;;;;;;;;;;;20.80;99.90;;;;;;15697765;22;19923;-35
2023/09/09 08:24:00;;;;;;;;;;;21.00;99.90;;;;;;15671710;22;19969;-35
2023/09/09 08:30:02;;;;;;;;;;;21.20;99.90;;;;;;15699356;22;20033;-35
2023/09/09 08:36:04;;;;;;;;;;;21.50;99.90;;;;;;15693073;22;19930;-36
2023/09/09 08:42:06;;;;;;;;;;;21.70;99.90;;;;;;15688788;22;20028;-35
2023/09/09 08:48:08;;;;;;;;;;;22.00;99.90;;;;;;15698565;22;19960;-36
2023/09/09 08:54:10;;;;;;;;;;;22.30;99.90;;;;;;15690256;22;20131;-36
2023/09/09 09:00:13;;;;;;;;;;;22.50;99.90;;;;;;15690647;22;19922;-36
2023/09/09 09:06:15;;;;;;;;;;;23.00;99.90;;;;;;15691450;22;19933;-36
2023/09/09 09:12:17;;;;;;;;;;;23.30;99.90;;;;;;15684534;22;20348;-36
2023/09/09 09:18:18;;;;;;;;;;;23.90;99.90;;;;;;15664202;22;19923;-35
2023/09/09 09:24:21;;;;;;;;;;;24.20;99.90;;;;;;15688358;22;19930;-35
2023/09/09 09:30:24;;;;;;;;;;;24.50;99.90;;;;;;15696086;22;20281;-36
2023/09/09 09:36:29;;;;;;;;;;;24.90;99.90;;;;;;15696158;22;20229;-36
2023/09/09 09:42:35;;;;;;;;;;;25.20;99.90;;;;;;15699136;22;19942;-35
2023/09/09 09:48:37;;;;;;;;;;;25.60;99.90;;;;;;15693183;22;19954;-36
2023/09/09 09:54:39;;;;;;;;;;;26.00;99.90;;;;;;15686752;22;20315;-36
2023/09/09 10:00:41;;;;;;;;;;;26.10;99.90;;;;;;15700434;22;19966;-35
2023/09/09 10:06:45;;;;;;;;;;;26.30;99.90;;;;;;15684365;22;19933;-36
2023/09/09 10:13:02;;;;;;;;;;;26.50;99.90;;;;;;15685735;22;19922;-37
2023/09/09 10:19:05;;;;;;;;;;;27.00;99.90;;;;;;15687413;22;19971;-36
2023/09/09 10:25:10;;;;;;;;;;;27.40;99.90;;;;;;15680328;22;20349;-36
2023/09/09 10:31:13;;;;;;;;;;;27.70;99.90;;;;;;15682343;22;20233;-36
2023/09/09 10:37:17;;;;;;;;;;;28.00;99.90;;;;;;15707066;22;19918;-38
2023/09/09 10:43:19;;;;;;;;;;;28.10;99.90;;;;;;15670109;22;19922;-37
2023/09/09 10:49:26;;;;;;;;;;;28.10;99.90;;;;;;15706096;22;19926;-36
2023/09/09 10:55:29;;;;;;;;;;;27.90;99.90;;;;;;15623891;22;19930;-36
2023/09/09 11:01:31;;;;;;;;;;;28.20;99.90;;;;;;15625853;22;20453;-36
2023/09/09 11:07:39;;;;;;;;;;;28.30;99.90;;;;;;15625461;22;19923;-37
2023/09/09 11:13:41;;;;;;;;;;;28.60;99.90;;;;;;15625163;22;19936;-36
2023/09/09 11:19:43;;;;;;;;;;;28.70;99.90;;;;;;15625610;22;20345;-36
2023/09/09 11:25:46;;;;;;;;;;;28.60;99.90;;;;;;15628547;22;19926;-37
2023/09/09 11:31:48;;;;;;;;;;;28.70;99.90;;;;;;15625673;22;19923;-37
2023/09/09 11:38:00;;;;;;;;;;;29.00;99.90;;;;;;15626150;22;19969;-36
2023/09/09 11:44:03;;;;;;;;;;;28.80;99.90;;;;;;15623424;22;20233;-37
2023/09/09 11:50:05;;;;;;;;;;;29.20;99.90;;;;;;15623905;22;19923;-36
2023/09/09 11:56:07;;;;;;;;;;;29.30;99.90;;;;;;15625366;22;19926;-36
2023/09/09 12:02:16;;;;;;;;;;;29.40;99.90;;;;;;15621636;22;19923;-36
2023/09/09 12:08:18;;;;;;;;;;;29.10;99.90;;;;;;15623580;22;19958;-36
2023/09/09 12:14:20;;;;;;;;;;;29.30;99.90;;;;;;15616448;22;20027;-36
2023/09/09 12:20:22;;;;;;;;;;;29.40;99.90;;;;;;15624992;22;19927;-36
2023/09/09 12:26:24;;;;;;;;;;;29.40;99.90;;;;;;15621050;22;19923;-38
2023/09/09 12:32:28;;;;;;;;;;;29.30;99.90;;;;;;15620428;22;19923;-36
2023/09/09 12:38:36;;;;;;;;;;;29.40;99.90;;;;;;15613036;22;19919;-36
2023/09/09 12:44:49;;;;;;;;;;;29.30;99.90;;;;;;15614026;22;20027;-37
2023/09/09 12:50:50;;;;;;;;;;;29.20;99.90;;;;;;15621209;22;19946;-37
2023/09/09 12:56:52;;;;;;;;;;;29.40;99.90;;;;;;15618210;22;20037;-35
2023/09/09 13:02:54;;;;;;;;;;;29.50;99.90;;;;;;15624564;22;19930;-37
2023/09/09 13:08:56;;;;;;;;;;;29.60;99.90;;;;;;15615292;22;19923;-37
2023/09/09 13:14:58;;;;;;;;;;;29.90;99.90;;;;;;15624239;22;19927;-36
2023/09/09 13:21:00;;;;;;;;;;;29.80;99.90;;;;;;15610734;22;19934;-36
2023/09/09 13:27:02;;;;;;;;;;;29.90;99.90;;;;;;15622252;22;20002;-35
2023/09/09 13:33:05;;;;;;;;;;;29.90;99.90;;;;;;15618182;22;20278;-36
2023/09/09 13:39:07;;;;;;;;;;;29.90;99.90;;;;;;15625863;22;20425;-36
2023/09/09 13:45:09;;;;;;;;;;;29.80;99.90;;;;;;15619167;22;20276;-36
2023/09/09 13:51:12;;;;;;;;;;;29.60;99.90;;;;;;15632204;22;19927;-37
2023/09/09 13:57:13;;;;;;;;;;;29.60;99.90;;;;;;15704739;22;20353;-36
2023/09/09 14:03:15;;;;;;;;;;;29.50;99.90;;;;;;15674954;22;19993;-37
2023/09/09 14:09:17;;;;;;;;;;;29.50;99.90;;;;;;15703050;22;20361;-36
2023/09/09 14:15:19;;;;;;;;;;;29.20;99.90;;;;;;15679783;22;19945;-36
2023/09/09 14:21:22;;;;;;;;;;;29.10;99.90;;;;;;15706035;22;19924;-36
2023/09/09 14:27:24;;;;;;;;;;;28.80;99.90;;;;;;15672483;22;20012;-37
2023/09/09 14:33:28;;;;;;;;;;;28.70;99.90;;;;;;15703696;22;19929;-37
2023/09/09 14:39:30;;;;;;;;;;;28.60;99.90;;;;;;15677453;22;19923;-38
2023/09/09 14:45:32;;;;;;;;;;;28.80;99.90;;;;;;15702814;22;19927;-37
2023/09/09 14:51:34;;;;;;;;;;;29.00;99.90;;;;;;15703881;22;20157;-36
2023/09/09 14:57:36;;;;;;;;;;;29.10;99.90;;;;;;15672276;22;19934;-36
2023/09/09 15:03:38;;;;;;;;;;;29.40;99.90;;;;;;15688525;22;19923;-36
2023/09/09 15:09:40;;;;;;;;;;;29.30;99.90;;;;;;15699801;22;19993;-37
2023/09/09 15:15:43;;;;;;;;;;;29.40;99.90;;;;;;15699173;22;20260;-36
2023/09/09 15:21:44;;;;;;;;;;;29.60;99.90;;;;;;15677121;22;19989;-37
2023/09/09 15:27:46;;;;;;;;;;;29.70;99.90;;;;;;15695636;22;20331;-36
2023/09/09 15:33:48;;;;;;;;;;;29.70;99.90;;;;;;15700833;22;20348;-37
2023/09/09 15:39:50;;;;;;;;;;;29.70;99.90;;;;;;15669889;22;20313;-35
2023/09/09 15:45:58;;;;;;;;;;;29.70;99.90;;;;;;15663683;22;19926;-36
2023/09/09 15:52:04;;;;;;;;;;;29.80;99.90;;;;;;15695171;22;19975;-35
2023/09/09 15:58:05;;;;;;;;;;;29.70;99.90;;;;;;15698993;22;20256;-35
2023/09/09 16:04:07;;;;;;;;;;;29.80;99.90;;;;;;15702768;22;19936;-35
2023/09/09 16:10:09;;;;;;;;;;;29.80;99.90;;;;;;15689479;22;19918;-36
2023/09/09 16:16:11;;;;;;;;;;;29.50;99.90;;;;;;15699262;22;19929;-36
2023/09/09 16:22:13;;;;;;;;;;;29.60;99.90;;;;;;15700369;22;19926;-35
2023/09/09 16:28:15;;;;;;;;;;;29.60;99.90;;;;;;15672636;22;20003;-36
2023/09/09 16:34:17;;;;;;;;;;;29.70;99.90;;;;;;15700700;22;19922;-35
2023/09/09 16:40:19;;;;;;;;;;;29.70;99.90;;;;;;15692858;22;19965;-36
2023/09/09 16:46:21;;;;;;;;;;;29.70;99.90;;;;;;15693131;22;19953;-35
2023/09/09 16:52:22;;;;;;;;;;;29.60;99.90;;;;;;15700909;22;19930;-35
2023/09/09 16:58:24;;;;;;;;;;;29.40;99.90;;;;;;15693388;22;19930;-35
2023/09/09 17:04:26;;;;;;;;;;;29.20;99.90;;;;;;15696045;22;19975;-35
2023/09/09 17:10:28;;;;;;;;;;;28.90;99.90;;;;;;15690687;22;19930;-35
2023/09/09 17:16:30;;;;;;;;;;;28.70;99.90;;;;;;15670530;22;20355;-36
2023/09/09 17:22:32;;;;;;;;;;;28.40;99.90;;;;;;15688964;22;19926;-35
2023/09/09 17:28:33;;;;;;;;;;;27.90;99.90;;;;;;15700320;22;20251;-36
2023/09/09 17:34:39;;;;;;;;;;;27.30;99.90;;;;;;15690654;22;20388;-37
2023/09/09 17:40:41;;;;;;;;;;;26.50;99.90;;;;;;15696682;22;19941;-36
2023/09/09 17:46:44;;;;;;;;;;;25.80;99.90;;;;;;15695145;22;19923;-36
2023/09/09 17:52:47;;;;;;;;;;;25.80;99.90;;;;;;15691376;22;20462;-35
2023/09/09 17:58:51;;;;;;;;;;;25.40;99.90;;;;;;15687433;22;19922;-35
2023/09/09 18:04:53;;;;;;;;;;;25.00;99.90;;;;;;15690011;22;19926;-35
2023/09/09 18:10:55;;;;;;;;;;;24.20;99.90;;;;;;15684133;22;19929;-35
2023/09/09 18:16:57;;;;;;;;;;;23.90;99.90;;;;;;15697211;22;20032;-35
2023/09/09 18:22:59;;;;;;;;;;;24.00;99.90;;;;;;15703245;22;19929;-35
2023/09/09 18:29:01;;;;;;;;;;;23.90;99.90;;;;;;15694618;22;19922;-35
2023/09/09 18:35:03;;;;;;;;;;;24.00;99.90;;;;;;15699460;22;20095;-35
2023/09/09 18:41:04;;;;;;;;;;;23.90;99.90;;;;;;15670273;22;20005;-36
2023/09/09 18:47:06;;;;;;;;;;;23.50;99.90;;;;;;15689051;22;19946;-35
2023/09/09 18:53:08;;;;;;;;;;;23.40;99.90;;;;;;15672823;22;20019;-35
2023/09/09 18:59:10;;;;;;;;;;;23.50;99.90;;;;;;15690504;22;19929;-36
2023/09/09 19:05:12;;;;;;;;;;;23.30;99.90;;;;;;15690449;22;19922;-36
2023/09/09 19:11:15;;;;;;;;;;;23.20;99.90;;;;;;15699715;22;19926;-35
2023/09/09 19:17:17;;;;;;;;;;;22.70;99.90;;;;;;15690053;22;19923;-35
2023/09/09 19:23:19;;;;;;;;;;;22.50;99.90;;;;;;15692174;22;19922;-35
2023/09/09 19:29:21;;;;;;;;;;;22.50;99.90;;;;;;15695991;22;19922;-35
2023/09/09 19:35:23;;;;;;;;;;;22.40;99.90;;;;;;15666827;22;20333;-36
2023/09/09 19:41:24;;;;;;;;;;;22.50;99.90;;;;;;15699916;22;19954;-35
2023/09/09 19:47:26;;;;;;;;;;;22.40;99.90;;;;;;15701351;22;19923;-35
2023/09/09 19:53:28;;;;;;;;;;;22.20;99.90;;;;;;15699238;22;20361;-35
2023/09/09 19:59:30;;;;;;;;;;;22.10;99.90;;;;;;15700378;22;19929;-35
2023/09/09 20:05:32;;;;;;;;;;;22.00;99.90;;;;;;15700261;22;20357;-36
2023/09/09 20:11:34;;;;;;;;;;;22.00;99.90;;;;;;15702193;22;19930;-36
2023/09/09 20:17:36;;;;;;;;;;;22.20;99.90;;;;;;15701023;22;19923;-35
2023/09/09 20:23:38;;;;;;;;;;;22.10;99.90;;;;;;15700717;22;19950;-35
2023/09/09 20:29:40;;;;;;;;;;;21.80;99.90;;;;;;15696539;22;19922;-35
2023/09/09 20:35:42;;;;;;;;;;;21.70;99.90;;;;;;15700748;22;20631;-35
2023/09/09 20:41:49;;;;;;;;;;;21.80;99.90;;;;;;15702690;22;19926;-35
2023/09/09 20:47:51;;;;;;;;;;;22.00;99.90;;;;;;15700938;22;20318;-35
2023/09/09 20:53:53;;;;;;;;;;;22.00;99.90;;;;;;15672046;22;19929;-35
2023/09/09 20:59:55;;;;;;;;;;;22.10;99.90;;;;;;15671594;22;19958;-36
2023/09/09 21:05:56;;;;;;;;;;;22.00;99.90;;;;;;15700409;22;19923;-35
2023/09/09 21:11:58;;;;;;;;;;;21.90;99.90;;;;;;15671680;22;20046;-35
2023/09/09 21:18:00;;;;;;;;;;;21.70;99.90;;;;;;15700152;22;19995;-35
2023/09/09 21:24:02;;;;;;;;;;;21.70;99.90;;;;;;15672425;22;19930;-35
2023/09/09 21:30:05;;;;;;;;;;;21.20;99.90;;;;;;15695564;22;20121;-35
2023/09/09 21:36:08;;;;;;;;;;;21.50;99.90;;;;;;15670398;22;19923;-35
2023/09/09 21:42:10;;;;;;;;;;;21.70;99.90;;;;;;15701945;22;20249;-35
2023/09/09 21:48:11;;;;;;;;;;;21.50;99.90;;;;;;15695936;22;19942;-35
2023/09/09 21:54:13;;;;;;;;;;;21.70;99.90;;;;;;15696926;22;20397;-35
2023/09/09 22:00:19;;;;;;;;;;;21.80;99.90;;;;;;15698272;22;20401;-35
2023/09/09 22:06:21;;;;;;;;;;;21.90;99.90;;;;;;15670345;22;19922;-35
2023/09/09 22:12:22;;;;;;;;;;;21.90;99.90;;;;;;15705802;22;19919;-35
2023/09/09 22:18:24;;;;;;;;;;;21.90;99.90;;;;;;15698357;22;19985;-35
2023/09/09 22:24:26;;;;;;;;;;;21.40;99.90;;;;;;15702165;22;19926;-35
2023/09/09 22:30:28;;;;;;;;;;;21.40;99.90;;;;;;15704926;22;19930;-35
2023/09/09 22:36:30;;;;;;;;;;;21.30;99.90;;;;;;15705631;22;19923;-35
2023/09/09 22:42:32;;;;;;;;;;;21.00;99.90;;;;;;15703133;22;20033;-37
2023/09/09 22:48:34;;;;;;;;;;;20.60;99.90;;;;;;15705343;22;19933;-35
2023/09/09 22:54:36;;;;;;;;;;;20.60;99.90;;;;;;15703476;22;19958;-35
2023/09/09 23:00:38;;;;;;;;;;;20.60;99.90;;;;;;15703856;22;19922;-35
2023/09/09 23:06:40;;;;;;;;;;;20.90;99.90;;;;;;15700151;22;19930;-35
2023/09/09 23:12:42;;;;;;;;;;;20.70;99.90;;;;;;15700549;22;20285;-35
2023/09/09 23:18:43;;;;;;;;;;;20.60;99.90;;;;;;15695476;22;20306;-38
2023/09/09 23:24:45;;;;;;;;;;;20.80;99.90;;;;;;15706740;22;19923;-35
2023/09/09 23:30:56;;;;;;;;;;;20.90;99.90;;;;;;15698721;22;19953;-35
2023/09/09 23:36:57;;;;;;;;;;;21.00;99.90;;;;;;15701603;22;19929;-35
2023/09/09 23:42:59;;;;;;;;;;;20.90;99.90;;;;;;15694477;22;19997;-35
2023/09/09 23:49:01;;;;;;;;;;;20.90;99.90;;;;;;15702044;22;20197;-35
2023/09/09 23:55:03;;;;;;;;;;;20.90;99.90;;;;;;15702424;22;19922;-35
